Time;durP1;ratioP1;P1;durP2;ratioP2;P2;SDS_P1;SDS_P2;PMS_P1;PMS_P2;Temp;Humidity;BMP_temperature;BMP_pressure;BME280_temperature;BME280_humidity;BME280_pressure;Samples;Min_cycle;Max_cycle;Signal;HPM_P1;HPM_P2
2023/05/18 00:00:23;;;;;;;16.00;13.63;;;;;;;21.16;52.21;94515.81;6113217;28;109036;-69
2023/05/18 00:03:27;;;;;;;16.43;14.83;;;;;;;21.14;52.30;94509.25;6116035;22;110437;-66
2023/05/18 00:06:30;;;;;;;15.80;14.37;;;;;;;21.19;52.37;94527.75;6089051;28;109147;-69
2023/05/18 00:09:34;;;;;;;15.90;14.40;;;;;;;21.18;52.14;94528.84;6088058;28;109611;-68
2023/05/18 00:12:38;;;;;;;16.10;14.70;;;;;;;21.18;52.23;94531.50;6089936;28;109040;-68
2023/05/18 00:15:42;;;;;;;18.57;15.33;;;;;;;21.19;52.22;94533.84;6078745;28;108949;-68
2023/05/18 00:18:46;;;;;;;15.77;14.17;;;;;;;21.13;52.68;94521.00;6094887;28;108913;-68
2023/05/18 00:21:50;;;;;;;13.97;12.70;;;;;;;21.15;52.41;94524.13;6093970;28;108890;-68
2023/05/18 00:24:53;;;;;;;16.40;14.73;;;;;;;21.16;52.17;94523.03;6089450;28;108832;-68
2023/05/18 00:27:56;;;;;;;16.10;14.60;;;;;;;21.16;52.51;94531.00;6079037;28;108901;-68
2023/05/18 00:31:00;;;;;;;14.47;13.20;;;;;;;21.15;52.70;94526.78;6095923;28;108901;-68
2023/05/18 00:34:04;;;;;;;14.30;12.83;;;;;;;21.13;52.58;94528.97;6085917;28;109457;-68
2023/05/18 00:37:07;;;;;;;15.10;13.80;;;;;;;21.15;52.62;94529.44;6081342;28;108952;-68
2023/05/18 00:40:11;;;;;;;16.10;14.60;;;;;;;21.14;52.08;94530.53;6084813;28;110172;-68
2023/05/18 00:43:15;;;;;;;14.40;13.00;;;;;;;21.14;52.38;94530.53;6088817;28;108997;-68
2023/05/18 00:46:19;;;;;;;14.47;12.97;;;;;;;21.14;52.25;94535.84;6089527;28;108841;-68
2023/05/18 00:49:22;;;;;;;13.10;12.00;;;;;;;21.14;51.89;94530.53;6078617;28;108946;-68
2023/05/18 00:52:27;;;;;;;13.67;12.37;;;;;;;21.13;52.38;94518.34;6089563;28;108888;-66
2023/05/18 00:55:30;;;;;;;13.60;12.37;;;;;;;21.00;52.18;94503.25;6088501;28;108880;-68
2023/05/18 00:58:33;;;;;;;14.90;13.50;;;;;;;21.12;52.61;94524.75;6088944;28;108905;-68
2023/05/18 01:01:42;;;;;;;14.20;13.00;;;;;;;21.11;52.39;94523.19;6077985;28;109259;-67
2023/05/18 01:04:45;;;;;;;13.70;12.37;;;;;;;21.10;52.48;94516.31;6082032;28;108997;-68
2023/05/18 01:07:50;;;;;;;12.73;11.63;;;;;;;21.09;52.09;94523.50;6088743;28;108861;-69
2023/05/18 01:11:00;;;;;;;13.50;12.30;;;;;;;21.09;52.48;94522.72;6088502;28;108853;-64
2023/05/18 01:14:10;;;;;;;12.60;11.40;;;;;;;21.02;52.13;94514.41;6083286;28;109353;-67
2023/05/18 01:17:24;;;;;;;12.67;11.47;;;;;;;21.07;51.89;94527.56;6088899;28;108877;-58
2023/05/18 01:20:36;;;;;;;12.20;11.10;;;;;;;21.01;52.19;94516.28;6096035;28;108900;-58
2023/05/18 01:24:07;;;;;;;12.87;11.77;;;;;;;21.07;51.98;94538.22;6075330;28;108936;-59
2023/05/18 01:27:16;;;;;;;12.93;11.73;;;;;;;21.08;52.39;94531.78;6088643;28;109009;-58
2023/05/18 01:30:19;;;;;;;12.67;11.50;;;;;;;21.07;51.97;94538.22;6087603;28;108898;-58
2023/05/18 01:33:23;;;;;;;11.90;10.80;;;;;;;21.07;52.38;94530.22;6089495;28;108903;-58
2023/05/18 01:36:27;;;;;;;12.73;11.53;;;;;;;21.05;51.85;94525.22;6077765;28;109260;-58
2023/05/18 01:39:30;;;;;;;11.87;10.77;;;;;;;21.05;52.01;94527.88;6087416;28;109024;-58
2023/05/18 01:42:39;;;;;;;11.63;10.63;;;;;;;21.06;52.09;94526.00;6086422;28;109019;-62
2023/05/18 01:45:47;;;;;;;11.23;10.23;;;;;;;21.05;52.27;94533.19;6081814;28;108880;-60
2023/05/18 01:48:56;;;;;;;12.20;11.00;;;;;;;21.04;51.98;94531.59;6087562;28;108906;-58
2023/05/18 01:52:04;;;;;;;11.20;10.30;;;;;;;21.06;52.00;94540.09;6087840;28;109158;-58
2023/05/18 01:55:09;;;;;;;11.00;9.90;;;;;;;21.05;52.08;94540.41;6087598;28;109270;-58
2023/05/18 01:58:15;;;;;;;11.53;10.50;;;;;;;21.03;51.90;94538.03;6077320;28;108947;-59
2023/05/18 02:01:21;;;;;;;10.93;9.93;;;;;;;21.03;52.30;94538.03;6087342;28;109400;-58
2023/05/18 02:04:25;;;;;;;10.30;9.40;;;;;;;21.01;51.86;94542.88;6086878;28;109441;-59
2023/05/18 02:07:27;;;;;;;10.13;9.23;;;;;;;;;;6087130;28;108965;-58
2023/05/18 02:10:31;;;;;;;10.10;9.30;;;;;;;21.02;52.07;94554.28;6076091;28;109780;-58
2023/05/18 02:13:35;;;;;;;11.13;10.07;;;;;;;20.86;51.94;94517.50;6087750;28;110465;-58
2023/05/18 02:16:38;;;;;;;10.47;9.53;;;;;;;21.01;52.01;94547.41;6087503;28;108994;-59
2023/05/18 02:19:42;;;;;;;9.70;8.87;;;;;;;21.01;51.89;94544.75;6086977;28;108860;-58
2023/05/18 02:22:45;;;;;;;9.70;8.90;;;;;;;20.96;52.19;94535.03;6084205;28;108983;-58
2023/05/18 02:25:49;;;;;;;9.63;8.83;;;;;;;21.00;51.80;94533.31;6063591;28;108871;-58
2023/05/18 02:28:53;;;;;;;9.33;8.53;;;;;;;20.98;52.21;94534.72;6064501;28;108868;-66
2023/05/18 02:31:56;;;;;;;9.87;9.07;;;;;;;20.96;51.90;94534.25;6078053;28;109946;-66
2023/05/18 02:35:01;;;;;;;9.07;8.27;;;;;;;20.98;52.32;94546.13;6092024;28;108901;-67
2023/05/18 02:38:04;;;;;;;9.23;8.43;;;;;;;20.98;51.95;94556.00;6091770;28;108991;-66
2023/05/18 02:41:08;;;;;;;9.17;8.37;;;;;;;20.98;52.21;94548.00;6091731;28;109100;-66
2023/05/18 02:44:12;;;;;;;8.90;8.20;;;;;;;20.91;51.70;94535.97;6081876;28;108844;-66
2023/05/18 02:47:15;;;;;;;8.33;7.60;;;;;;;20.97;51.67;94555.22;6092248;28;108909;-66
2023/05/18 02:50:18;;;;;;;9.40;8.50;;;;;;;20.96;51.59;94558.19;6091994;28;108912;-67
2023/05/18 02:53:22;;;;;;;7.80;7.20;;;;;;;20.98;51.91;94563.97;6087081;28;109225;-66
2023/05/18 02:56:25;;;;;;;15.17;8.60;;;;;;;20.98;52.45;94569.28;6085108;28;109636;-65
2023/05/18 02:59:30;;;;;;;8.83;7.93;;;;;;;20.97;51.74;94570.38;6091515;28;108974;-65
2023/05/18 03:02:37;;;;;;;9.70;7.67;;;;;;;20.94;52.28;94582.44;6090452;28;110094;-64
2023/05/18 03:05:41;;;;;;;8.97;7.60;;;;;;;20.94;51.68;94585.09;6077401;28;108810;-63
2023/05/18 03:08:47;;;;;;;7.80;7.00;;;;;;;20.96;51.90;94582.91;6090203;28;108950;-64
2023/05/18 03:11:52;;;;;;;7.90;7.20;;;;;;;20.93;51.98;94589.63;6087857;28;108973;-65
2023/05/18 03:14:57;;;;;;;9.83;7.67;;;;;;;20.93;51.99;94594.16;6091785;28;108865;-66
2023/05/18 03:18:00;;;;;;;8.30;7.50;;;;;;;20.91;51.98;94602.44;6079957;28;109034;-67
2023/05/18 03:21:03;;;;;;;21.33;18.83;;;;;;;20.92;51.80;94604.00;6091992;28;108998;-65
2023/05/18 03:24:06;;;;;;;17.37;15.57;;;;;;;20.92;52.37;94603.22;6091491;28;109036;-65
2023/05/18 03:27:11;;;;;;;26.23;23.57;;;;;;;20.97;52.43;94600.44;6089652;28;108907;-66
2023/05/18 03:30:16;;;;;;;36.33;32.73;;;;;;;21.08;54.38;94607.06;6077351;28;109442;-66
2023/05/18 03:33:19;;;;;;;45.97;31.23;;;;;;;21.12;55.37;94608.00;6090012;28;108875;-65
2023/05/18 03:36:24;;;;;;;29.80;26.67;;;;;;;21.17;55.25;94615.06;6091052;28;108984;-66
2023/05/18 03:39:28;;;;;;;27.10;23.20;;;;;;;21.21;55.77;94616.81;6081001;28;108908;-69
2023/05/18 03:42:31;;;;;;;24.80;22.17;;;;;;;21.24;55.72;94617.28;6087079;28;109320;-68
2023/05/18 03:45:35;;;;;;;23.00;20.63;;;;;;;21.25;55.86;94619.63;6091048;28;108993;-69
2023/05/18 03:48:38;;;;;;;22.60;20.20;;;;;;;21.19;55.85;94607.56;6094427;28;109003;-70
2023/05/18 03:51:41;;;;;;;24.67;17.90;;;;;;;21.23;56.04;94624.47;6083086;28;109147;-70
2023/05/18 03:54:45;;;;;;;24.83;16.43;;;;;;;21.26;55.77;94631.84;6092289;28;108953;-70
2023/05/18 03:57:48;;;;;;;22.50;16.23;;;;;;;21.24;55.69;94636.69;6091344;28;108935;-68
2023/05/18 04:00:53;;;;;;;31.20;14.97;;;;;;;21.11;56.16;94617.09;6090301;28;108976;-70
2023/05/18 04:03:56;;;;;;;37.10;15.80;;;;;;;21.23;56.37;94639.66;6079003;28;109900;-68
2023/05/18 04:07:01;;;;;;;33.17;12.43;;;;;;;21.16;56.08;94630.22;6091135;28;108854;-71
2023/05/18 04:10:05;;;;;;;32.60;11.40;;;;;;;21.27;55.58;94649.38;6089822;28;109002;-71
2023/05/18 04:13:08;;;;;;;18.17;10.50;;;;;;;21.28;54.88;94645.59;6085755;28;108758;-67
2023/05/18 04:16:12;;;;;;;17.40;7.27;;;;;;;21.23;54.37;94648.41;6085769;28;108948;-71
2023/05/18 04:19:15;;;;;;;35.67;9.20;;;;;;;21.22;54.25;94646.84;6090037;28;108863;-69
2023/05/18 04:22:20;;;;;;;36.57;9.50;;;;;;;21.18;54.09;94643.25;6092187;28;108931;-70
2023/05/18 04:25:26;;;;;;;45.87;8.80;;;;;;;21.18;54.07;94640.59;6081691;28;108822;-69
2023/05/18 04:28:31;;;;;;;27.40;9.57;;;;;;;21.17;54.27;94637.16;6092748;28;108792;-70
2023/05/18 04:31:35;;;;;;;27.13;8.40;;;;;;;21.15;54.09;94649.94;6092326;28;108917;-71
2023/05/18 04:34:41;;;;;;;21.00;8.57;;;;;;;21.12;53.68;94645.25;6087466;28;108912;-71
2023/05/18 04:37:44;;;;;;;23.17;7.30;;;;;;;21.08;53.30;94649.63;6057247;28;108485;-70
2023/05/18 04:40:48;;;;;;;18.90;6.47;;;;;;;21.05;52.82;94652.13;6067186;28;108915;-70
2023/05/18 04:43:52;;;;;;;21.17;5.50;;;;;;;21.02;52.76;94655.38;6068614;28;108801;-70
2023/05/18 04:46:58;;;;;;;18.03;5.10;;;;;;;20.98;52.72;94654.41;6062782;28;108887;-69
2023/05/18 04:50:02;;;;;;;13.43;5.03;;;;;;;20.99;52.61;94661.28;6062630;28;108956;-70
2023/05/18 04:53:07;;;;;;;13.50;5.97;;;;;;;21.00;52.30;94665.50;6067671;28;108864;-69
2023/05/18 04:56:12;;;;;;;10.30;4.23;;;;;;;20.96;52.24;94664.56;6067193;28;108976;-69
2023/05/18 04:59:15;;;;;;;13.43;5.50;;;;;;;;;;6058762;28;108884;-66
2023/05/18 05:02:20;;;;;;;10.63;4.33;;;;;;;20.93;52.17;94680.06;6067921;28;108918;-70
2023/05/18 05:05:24;;;;;;;10.43;3.80;;;;;;;20.85;52.29;94672.84;6067572;28;108947;-70
2023/05/18 05:08:27;;;;;;;13.70;4.27;;;;;;;20.90;52.41;94686.00;6068292;28;108975;-70
2023/05/18 05:11:31;;;;;;;14.30;4.30;;;;;;;20.82;52.18;94668.09;6056084;28;108978;-69
2023/05/18 05:14:34;;;;;;;19.37;5.00;;;;;;;20.83;52.17;94679.53;6067733;28;108883;-70
2023/05/18 05:17:38;;;;;;;16.80;4.17;;;;;;;20.89;52.07;94694.28;6067047;28;108840;-70
2023/05/18 05:20:42;;;;;;;14.60;4.00;;;;;;;20.75;51.83;94673.09;6065888;28;108937;-70
2023/05/18 05:23:45;;;;;;;13.37;3.83;;;;;;;20.89;51.71;94700.38;6055379;28;112562;-70
2023/05/18 05:26:48;;;;;;;8.30;3.13;;;;;;;20.87;52.16;94697.25;6065487;28;109232;-70
2023/05/18 05:29:51;;;;;;;9.13;3.10;;;;;;;20.79;52.10;94689.22;6065280;28;108939;-69
2023/05/18 05:32:56;;;;;;;6.20;3.03;;;;;;;20.85;51.78;94698.66;6081321;28;108972;-66
2023/05/18 05:35:59;;;;;;;8.83;3.50;;;;;;;20.85;51.85;94704.75;6087428;28;109044;-69
2023/05/18 05:39:02;;;;;;;9.30;3.13;;;;;;;20.86;51.58;94702.88;6089079;28;109001;-69
2023/05/18 05:42:07;;;;;;;8.40;4.03;;;;;;;20.82;51.42;94702.69;6088360;28;108901;-70
2023/05/18 05:45:10;;;;;;;7.10;2.80;;;;;;;20.76;51.68;94698.59;6077977;28;108929;-69
2023/05/18 05:48:15;;;;;;;5.33;3.17;;;;;;;20.82;51.62;94709.88;6089520;28;108882;-69
2023/05/18 05:51:18;;;;;;;4.53;3.23;;;;;;;20.82;51.35;94715.19;6089165;28;109541;-69
2023/05/18 05:54:21;;;;;;;6.70;3.63;;;;;;;20.81;51.20;94714.41;6089238;28;108901;-70
2023/05/18 05:57:25;;;;;;;4.17;2.93;;;;;;;20.83;51.53;94712.22;6078715;28;108981;-70
2023/05/18 06:00:28;;;;;;;7.40;3.30;;;;;;;20.80;51.58;94712.84;6088857;28;108926;-69
2023/05/18 06:03:32;;;;;;;15.53;3.87;;;;;;;20.75;51.40;94715.63;6088578;28;108993;-69
2023/05/18 06:06:38;;;;;;;8.47;3.23;;;;;;;20.73;51.07;94717.81;6087176;28;108955;-69
2023/05/18 06:09:41;;;;;;;9.30;3.40;;;;;;;20.69;51.28;94722.19;6087825;28;108868;-70
2023/05/18 06:12:44;;;;;;;5.23;3.00;;;;;;;20.71;51.19;94724.53;6092346;28;108868;-69
2023/05/18 06:15:47;;;;;;;5.83;3.03;;;;;;;20.71;51.03;94722.66;6093214;28;108991;-70
2023/05/18 06:18:52;;;;;;;3.17;2.87;;;;;;;20.68;51.31;94723.28;6083329;28;109772;-69
2023/05/18 06:21:55;;;;;;;5.37;3.53;;;;;;;20.57;51.26;94713.97;6092505;28;108908;-70
2023/05/18 06:24:58;;;;;;;6.30;3.63;;;;;;;20.65;51.46;94737.16;6092593;28;108932;-71
2023/05/18 06:28:01;;;;;;;4.70;4.00;;;;;;;20.66;51.00;94735.28;6092999;28;108882;-70
2023/05/18 06:31:05;;;;;;;3.77;2.90;;;;;;;20.66;51.12;94738.72;6081958;28;108888;-71
2023/05/18 06:34:09;;;;;;;5.40;3.33;;;;;;;20.65;51.08;94747.00;6092606;28;108862;-70
2023/05/18 06:37:12;;;;;;;4.27;3.40;;;;;;;20.65;50.85;94739.81;6092346;28;108653;-70
2023/05/18 06:40:16;;;;;;;4.57;3.30;;;;;;;20.62;51.47;94748.41;6092068;28;108837;-69
2023/05/18 06:43:19;;;;;;;5.83;3.03;;;;;;;20.67;50.86;94750.94;6080716;28;108920;-69
2023/05/18 06:46:22;;;;;;;4.57;3.43;;;;;;;20.64;51.34;94748.88;6092339;28;109094;-69
2023/05/18 06:49:27;;;;;;;3.37;3.13;;;;;;;20.45;51.32;94721.69;6092381;28;108904;-69
2023/05/18 06:52:31;;;;;;;3.20;2.90;;;;;;;20.55;51.26;94743.50;6083708;28;109013;-63
2023/05/18 06:55:34;;;;;;;7.30;3.40;;;;;;;20.64;51.37;94762.16;6091821;28;108836;-63
2023/05/18 06:58:37;;;;;;;7.63;2.80;;;;;;;20.66;51.31;94760.00;6091718;28;108872;-63
2023/05/18 07:01:40;;;;;;;2.73;2.30;;;;;;;20.70;51.47;94771.63;6091053;28;108958;-63
2023/05/18 07:04:45;;;;;;;4.87;2.80;;;;;;;20.74;51.35;94769.13;6080439;28;108960;-62
2023/05/18 07:07:48;;;;;;;4.47;2.20;;;;;;;20.40;51.33;94724.50;6091638;28;108963;-61
2023/05/18 07:10:51;;;;;;;4.83;2.30;;;;;;;20.75;51.27;94784.78;6091649;28;108945;-60
2023/05/18 07:13:55;;;;;;;3.10;1.93;;;;;;;20.73;51.04;94784.28;6090439;28;109054;-60
2023/05/18 07:16:58;;;;;;;4.40;2.40;;;;;;;20.73;51.32;94781.63;6080140;28;109133;-60
2023/05/18 07:20:04;;;;;;;7.10;2.80;;;;;;;20.71;51.67;94789.13;6091428;28;108988;-60
2023/05/18 07:23:07;;;;;;;22.27;6.10;;;;;;;20.74;51.22;94793.84;6091324;28;108861;-60
2023/05/18 07:26:11;;;;;;;18.97;6.87;;;;;;;20.66;51.31;94783.13;6086732;28;110123;-61
2023/05/18 07:29:14;;;;;;;38.93;10.53;;;;;;;20.71;51.26;94789.13;6085393;28;108920;-60
2023/05/18 07:32:17;;;;;;;39.33;11.40;;;;;;;20.71;51.10;94799.78;6091106;28;109072;-59
2023/05/18 07:35:23;;;;;;;82.93;18.40;;;;;;;20.65;51.33;94797.50;6091482;28;108909;-61
2023/05/18 07:38:26;;;;;;;168.10;29.23;;;;;;;20.70;51.38;94800.84;6079474;28;109255;-61
2023/05/18 07:41:30;;;;;;;227.40;35.90;;;;;;;20.71;51.35;94804.31;6091106;28;108888;-60
2023/05/18 07:44:33;;;;;;;230.23;35.33;;;;;;;20.71;51.33;94813.06;6090469;28;108985;-60
2023/05/18 07:47:36;;;;;;;208.37;36.63;;;;;;;20.69;51.22;94812.59;6090581;28;108960;-60
2023/05/18 07:50:41;;;;;;;246.50;41.80;;;;;;;20.63;51.61;94814.56;6080493;28;108954;-60
2023/05/18 07:53:45;;;;;;;255.80;42.37;;;;;;;20.69;51.19;94822.44;6090815;28;109045;-60
2023/05/18 07:56:48;;;;;;;323.83;49.67;;;;;;;20.61;51.07;94827.38;6090491;28;108897;-60
2023/05/18 07:59:51;;;;;;;368.70;53.90;;;;;;;20.56;51.20;94822.16;6090170;28;108908;-61
2023/05/18 08:02:54;;;;;;;334.47;54.43;;;;;;;20.70;51.42;94839.97;6080705;28;108895;-60
2023/05/18 08:05:59;;;;;;;312.70;53.97;;;;;;;20.66;51.39;94845.06;6090020;28;108985;-60
2023/05/18 08:09:03;;;;;;;350.33;51.87;;;;;;;20.65;51.37;94853.34;6090437;28;108898;-61
2023/05/18 08:12:06;;;;;;;290.97;50.73;;;;;;;20.72;50.68;94859.84;6080087;28;109736;-60
2023/05/18 08:15:11;;;;;;;304.83;50.90;;;;;;;20.60;51.28;94846.28;6089395;28;108887;-59
2023/05/18 08:18:14;;;;;;;284.97;51.83;;;;;;;20.68;51.27;94866.84;6090143;28;108910;-60
2023/05/18 08:21:19;;;;;;;282.73;49.40;;;;;;;20.67;51.10;94870.59;6090159;28;108969;-62
2023/05/18 08:24:22;;;;;;;301.70;52.73;;;;;;;20.66;51.31;94871.66;6079105;28;109208;-62
2023/05/18 08:27:25;;;;;;;305.80;55.77;;;;;;;20.68;51.27;94877.47;6089810;28;108855;-62
2023/05/18 08:30:28;;;;;;;280.33;54.40;;;;;;;20.66;51.51;94884.16;6089065;28;109057;-62
2023/05/18 08:33:32;;;;;;;259.77;50.97;;;;;;;20.68;51.22;94885.47;6090011;28;108990;-62
2023/05/18 08:36:37;;;;;;;293.00;52.20;;;;;;;20.66;51.24;94890.25;6078763;28;109170;-62
2023/05/18 08:39:40;;;;;;;291.77;53.10;;;;;;;20.68;51.31;94896.09;6089682;28;108810;-61
2023/05/18 08:42:50;;;;;;;256.23;54.43;;;;;;;20.66;51.31;94895.59;6089701;28;108904;-61
2023/05/18 08:45:58;;;;;;;279.57;54.13;;;;;;;20.66;50.96;94895.59;6083688;28;108872;-61
2023/05/18 08:49:04;;;;;;;263.57;51.07;;;;;;;20.67;51.21;94901.69;6085039;28;108905;-62
2023/05/18 08:52:10;;;;;;;237.23;50.57;;;;;;;20.64;51.12;94908.38;6089614;28;108733;-62
2023/05/18 08:55:14;;;;;;;249.57;53.30;;;;;;;20.62;51.07;94913.22;6089319;28;108995;-61
2023/05/18 08:58:20;;;;;;;233.50;48.33;;;;;;;20.65;51.12;94911.84;6078459;28;108884;-62
2023/05/18 09:01:27;;;;;;;222.23;47.90;;;;;;;20.65;50.68;94912.63;6088948;28;109004;-62
2023/05/18 09:04:33;;;;;;;206.93;48.50;;;;;;;20.64;51.38;94913.72;6088761;28;108886;-62
2023/05/18 09:07:41;;;;;;;181.63;45.03;;;;;;;20.52;50.84;94897.50;6089794;28;108648;-63
2023/05/18 09:10:47;;;;;;;166.37;43.70;;;;;;;20.64;50.90;94932.31;6078289;28;108831;-63
2023/05/18 09:13:51;;;;;;;195.20;44.07;;;;;;;20.65;50.82;94925.13;6089288;28;108769;-63
2023/05/18 09:16:54;;;;;;;166.40;43.50;;;;;;;20.65;50.69;94927.78;6088501;28;108932;-63
2023/05/18 09:19:57;;;;;;;174.47;41.60;;;;;;;20.65;51.11;94923.25;6083444;28;109882;-63
2023/05/18 09:23:02;;;;;;;170.87;40.93;;;;;;;20.64;50.93;94927.00;6083527;28;109857;-63
2023/05/18 09:26:07;;;;;;;159.43;41.50;;;;;;;20.63;50.87;94926.22;6088981;28;109063;-63
2023/05/18 09:29:17;;;;;;;144.13;39.30;;;;;;;20.51;50.70;94909.22;6089117;28;108872;-59
2023/05/18 09:32:21;;;;;;;151.90;40.83;;;;;;;20.65;50.79;94925.91;6078662;28;108900;-60
2023/05/18 09:35:25;;;;;;;160.13;41.60;;;;;;;20.63;50.61;94936.84;6088744;28;108878;-60
2023/05/18 09:38:29;;;;;;;135.63;38.77;;;;;;;20.59;50.90;94940.41;6088861;28;108993;-60
2023/05/18 09:41:33;;;;;;;132.73;38.27;;;;;;;20.61;51.06;94943.56;6088606;28;108893;-60
2023/05/18 09:44:36;;;;;;;109.30;32.37;;;;;;;20.54;50.90;94933.34;6077869;28;108953;-59
2023/05/18 09:47:39;;;;;;;144.43;36.93;;;;;;;20.61;50.92;94949.66;6087333;28;108906;-60
2023/05/18 09:50:44;;;;;;;128.07;37.13;;;;;;;20.64;50.87;94948.28;6088933;28;108834;-60
2023/05/18 09:53:53;;;;;;;109.97;35.10;;;;;;;20.57;50.68;94943.38;6083610;28;108934;-60
2023/05/18 09:56:57;;;;;;;115.40;34.70;;;;;;;20.61;50.72;94954.97;6082702;28;108976;-59
2023/05/18 10:00:14;;;;;;;116.63;34.00;;;;;;;20.57;50.87;94953.22;6088319;28;109014;-59
2023/05/18 10:03:19;;;;;;;111.10;33.60;;;;;;;20.61;50.56;94964.81;6087547;28;109399;-60
2023/05/18 10:06:27;;;;;;;103.23;33.83;;;;;;;20.59;50.47;94967.00;6077714;28;108970;-59
2023/05/18 10:09:31;;;;;;;99.53;31.13;;;;;;;20.60;50.39;94963.25;6088576;28;108858;-60
2023/05/18 10:12:39;;;;;;;103.40;32.87;;;;;;;20.57;50.79;94961.97;6088523;28;108965;-59
2023/05/18 10:15:48;;;;;;;94.23;31.70;;;;;;;20.61;50.52;94972.78;6088448;28;108901;-60
2023/05/18 10:18:53;;;;;;;104.23;32.60;;;;;;;20.59;50.63;94965.13;6077289;28;108734;-59
2023/05/18 10:21:58;;;;;;;92.23;30.40;;;;;;;20.59;50.72;94978.41;6088646;28;108890;-60
2023/05/18 10:25:05;;;;;;;102.33;31.00;;;;;;;20.60;50.66;94979.19;6088252;28;108943;-59
2023/05/18 10:28:11;;;;;;;76.27;29.50;;;;;;;20.59;50.88;94978.41;6082792;28;108912;-59
2023/05/18 10:31:16;;;;;;;81.70;29.17;;;;;;;20.52;50.59;94969.28;6083934;28;109080;-59
2023/05/18 10:34:21;;;;;;;93.50;32.03;;;;;;;20.57;50.86;94993.09;6088095;28;109005;-59
2023/05/18 10:37:29;;;;;;;80.73;28.40;;;;;;;20.57;50.48;94993.09;6088008;28;108921;-60
2023/05/18 10:40:36;;;;;;;79.03;28.27;;;;;;;20.57;50.84;94990.44;6077722;28;109272;-61
2023/05/18 10:43:41;;;;;;;66.43;27.40;;;;;;;20.59;50.57;94994.38;6087800;28;108894;-61
2023/05/18 10:46:45;;;;;;;77.00;29.60;;;;;;;20.59;50.90;94998.91;6087810;28;109020;-61
2023/05/18 10:49:49;;;;;;;70.90;27.17;;;;;;;20.53;50.53;95000.09;6087045;28;108886;-62
2023/05/18 10:52:54;;;;;;;67.97;26.17;;;;;;;20.56;50.50;95015.44;6079288;28;109718;-60
2023/05/18 10:55:59;;;;;;;65.83;26.07;;;;;;;20.58;50.35;95018.59;6092037;28;108838;-61
2023/05/18 10:59:02;;;;;;;64.40;27.63;;;;;;;20.59;50.73;95022.81;6091817;28;108911;-62
2023/05/18 11:02:06;;;;;;;74.60;25.37;;;;;;;20.56;50.59;95028.75;6086795;28;108893;-62
2023/05/18 11:05:11;;;;;;;67.53;27.70;;;;;;;20.58;50.26;95026.56;6085847;28;109164;-62
2023/05/18 11:08:25;;;;;;;67.13;24.13;;;;;;;20.50;50.47;95011.28;6091886;28;109004;-61
2023/05/18 11:11:30;;;;;;;61.77;26.67;;;;;;;20.57;50.28;95035.63;6091821;28;108979;-62
2023/05/18 11:14:33;;;;;;;58.93;23.50;;;;;;;20.57;50.54;95043.59;6081792;28;110956;-62
2023/05/18 11:17:36;;;;;;;50.80;23.93;;;;;;;20.57;50.38;95044.38;6091439;28;108908;-61
2023/05/18 11:20:39;;;;;;;53.20;22.30;;;;;;;20.56;50.80;95052.66;6090273;28;108892;-62
2023/05/18 11:23:42;;;;;;;54.27;22.27;;;;;;;20.55;50.31;95051.09;6091426;28;109000;-61
2023/05/18 11:26:48;;;;;;;46.83;21.60;;;;;;;20.57;50.22;95060.34;6080787;28;108908;-61
2023/05/18 11:29:51;;;;;;;53.40;22.20;;;;;;;20.56;50.56;95052.66;6091512;28;108935;-61
2023/05/18 11:33:11;;;;;;;52.70;21.80;;;;;;;20.58;50.17;95045.19;6091135;28;108785;-62
2023/05/18 11:36:15;;;;;;;54.80;22.90;;;;;;;20.55;50.52;95045.78;6085214;28;109077;-61
2023/05/18 11:39:24;;;;;;;47.80;20.27;;;;;;;20.57;50.19;95060.34;6085500;28;111088;-61
2023/05/18 11:42:32;;;;;;;41.83;20.50;;;;;;;20.55;50.00;95064.38;6091290;28;108963;-62
2023/05/18 11:45:35;;;;;;;47.30;21.00;;;;;;;20.57;50.10;95059.56;6090823;28;108974;-61
2023/05/18 11:48:44;;;;;;;49.23;19.80;;;;;;;20.56;50.02;95058.78;6080117;28;108905;-63
2023/05/18 11:52:06;;;;;;;42.17;20.60;;;;;;;20.56;50.25;95052.66;6089987;28;108917;-63
2023/05/18 11:55:14;;;;;;;47.57;19.97;;;;;;;20.55;50.50;95051.09;6090503;28;108942;-63
2023/05/18 11:58:19;;;;;;;39.23;19.07;;;;;;;20.55;50.30;95051.09;6090897;28;108934;-62
2023/05/18 12:01:23;;;;;;;42.40;18.67;;;;;;;20.53;50.45;95053.25;6081280;28;111081;-63
2023/05/18 12:04:28;;;;;;;38.03;18.47;;;;;;;20.54;50.64;95047.66;6089828;28;108956;-64
2023/05/18 12:07:33;;;;;;;41.77;18.37;;;;;;;20.56;50.18;95050.78;6090470;28;108897;-65
2023/05/18 12:10:36;;;;;;;41.70;18.47;;;;;;;20.54;50.37;95050.31;6081483;28;108960;-61
2023/05/18 12:13:41;;;;;;;29.90;16.50;;;;;;;20.54;50.38;95052.19;6089482;28;108977;-62
2023/05/18 12:16:45;;;;;;;41.60;18.00;;;;;;;20.53;50.02;95050.59;6090542;28;108973;-63
2023/05/18 12:19:50;;;;;;;40.53;17.53;;;;;;;20.53;50.09;95062.03;6090423;28;108993;-63
2023/05/18 12:22:55;;;;;;;34.10;16.87;;;;;;;20.55;50.03;95056.41;6079236;28;108850;-63
2023/05/18 12:25:58;;;;;;;37.90;18.80;;;;;;;20.54;50.09;95057.50;6090258;28;108902;-63
2023/05/18 12:29:03;;;;;;;35.97;17.00;;;;;;;20.54;50.23;95055.63;6090015;28;108936;-64
2023/05/18 12:32:08;;;;;;;33.17;16.40;;;;;;;20.55;50.02;95057.19;6090191;28;109078;-63
2023/05/18 12:35:11;;;;;;;32.00;15.63;;;;;;;20.56;49.97;95058.78;6079768;28;109812;-63
2023/05/18 12:38:17;;;;;;;29.93;15.43;;;;;;;20.42;50.22;95036.72;6089992;28;108929;-63
2023/05/18 12:41:25;;;;;;;26.17;14.47;;;;;;;20.53;49.96;95058.56;6090100;28;108858;-63
2023/05/18 12:44:29;;;;;;;36.27;15.87;;;;;;;20.55;50.15;95056.41;6084828;28;108905;-63
2023/05/18 12:47:40;;;;;;;28.00;15.40;;;;;;;20.54;49.75;95060.16;6085400;28;108985;-63
2023/05/18 12:50:47;;;;;;;31.67;14.67;;;;;;;20.50;49.93;95059.13;6090184;28;108837;-63
2023/05/18 12:53:50;;;;;;;34.07;16.10;;;;;;;20.51;49.99;95058.09;6089049;28;108894;-62
2023/05/18 12:56:59;;;;;;;27.47;14.80;;;;;;;20.54;49.87;95066.25;6079181;28;108834;-63
2023/05/18 13:00:09;;;;;;;29.50;15.23;;;;;;;20.53;49.90;95071.88;6089610;28;109036;-61
2023/05/18 13:03:14;;;;;;;28.83;15.10;;;;;;;20.52;49.81;95076.41;6089040;28;108743;-62
2023/05/18 13:06:18;;;;;;;29.77;14.30;;;;;;;20.52;49.95;95079.06;6089687;28;108882;-61
2023/05/18 13:09:21;;;;;;;27.90;14.53;;;;;;;20.49;49.84;95066.31;6078517;28;109029;-61
2023/05/18 13:12:36;;;;;;;21.13;12.33;;;;;;;20.52;49.95;95080.94;6089620;28;109037;-61
2023/05/18 13:15:41;;;;;;;31.33;15.10;;;;;;;20.52;49.72;95083.59;6089159;28;108964;-61
2023/05/18 13:18:46;;;;;;;26.20;13.80;;;;;;;20.51;50.00;95079.34;6080657;28;108878;-61
2023/05/18 13:21:56;;;;;;;27.10;13.87;;;;;;;20.52;50.15;95078.28;6088568;28;108905;-61
2023/05/18 13:24:59;;;;;;;22.97;14.33;;;;;;;20.51;50.16;95071.38;6088048;28;109042;-62
2023/05/18 13:28:02;;;;;;;28.80;13.83;;;;;;;20.51;50.00;95076.69;6089099;28;108915;-61
2023/05/18 13:31:07;;;;;;;24.30;13.27;;;;;;;20.52;49.92;95084.38;6078119;28;108920;-61
2023/05/18 13:34:12;;;;;;;25.57;13.07;;;;;;;20.49;50.09;95079.63;6089315;28;108924;-61
2023/05/18 13:37:15;;;;;;;22.90;12.97;;;;;;;20.48;50.01;95077.25;6089026;28;108976;-61
2023/05/18 13:40:20;;;;;;;27.37;13.37;;;;;;;20.50;50.29;95085.72;6088780;28;109030;-61
2023/05/18 13:43:23;;;;;;;28.33;13.53;;;;;;;20.38;50.09;95064.16;6077959;28;110272;-61
2023/05/18 13:46:27;;;;;;;28.30;14.17;;;;;;;20.50;49.98;95088.38;6088759;28;108936;-61
2023/05/18 13:49:31;;;;;;;22.97;12.00;;;;;;;20.50;49.95;95091.03;6089070;28;108884;-61
2023/05/18 13:52:34;;;;;;;26.83;12.10;;;;;;;20.50;50.23;95088.38;6083067;28;108811;-62
2023/05/18 13:55:37;;;;;;;23.17;13.23;;;;;;;20.42;50.08;95078.44;6083245;28;110153;-61
2023/05/18 13:58:40;;;;;;;22.10;12.30;;;;;;;20.47;49.68;95088.97;6088690;28;108848;-61
2023/05/18 14:01:46;;;;;;;25.37;12.87;;;;;;;20.49;50.15;95084.94;6088775;28;108997;-61